Time;durP1;ratioP1;P1;durP2;ratioP2;P2;SDS_P1;SDS_P2;PMS_P1;PMS_P2;Temp;Humidity;BMP_temperature;BMP_pressure;BME280_temperature;BME280_humidity;BME280_pressure;Samples;Min_cycle;Max_cycle;Signal;HPM_P1;HPM_P2
2023/03/29 00:01:00;;;;;;;0.30;0.30;;;;;;;;;;5051864;28;20059;-60
2023/03/29 00:03:29;;;;;;;0.43;0.43;;;;;;;;;;5052786;28;20456;-58
2023/03/29 00:06:01;;;;;;;0.25;0.25;;;;;;;;;;5049627;28;20102;-59
2023/03/29 00:08:32;;;;;;;0.40;0.40;;;;;;;;;;5050134;28;20099;-59
2023/03/29 00:11:03;;;;;;;0.20;0.20;;;;;;;;;;5053347;28;20049;-60
2023/03/29 00:13:32;;;;;;;0.13;0.13;;;;;;;;;;5049570;28;20045;-59
2023/03/29 00:16:00;;;;;;;1.73;0.80;;;;;;;;;;5037546;28;20045;-63
2023/03/29 00:18:28;;;;;;;1.50;0.80;;;;;;;;;;5047908;28;20052;-59
2023/03/29 00:20:57;;;;;;;0.50;0.50;;;;;;;;;;5049500;28;20084;-60
2023/03/29 00:23:26;;;;;;;1.25;0.77;;;;;;;;;;5050892;28;20048;-59
2023/03/29 00:25:54;;;;;;;0.38;0.38;;;;;;;;;;5052297;28;20141;-60
2023/03/29 00:28:24;;;;;;;0.30;0.25;;;;;;;;;;5041895;28;20051;-59
2023/03/29 00:30:52;;;;;;;1.50;1.05;;;;;;;;;;5046365;28;20490;-64
2023/03/29 00:33:21;;;;;;;0.47;0.45;;;;;;;;;;5049317;28;20052;-62
2023/03/29 00:35:50;;;;;;;0.30;0.30;;;;;;;;;;5050009;28;20478;-60
2023/03/29 00:38:18;;;;;;;1.63;0.88;;;;;;;;;;5051558;28;20103;-59
2023/03/29 00:40:47;;;;;;;0.47;0.28;;;;;;;;;;5051572;28;20053;-60
2023/03/29 00:43:15;;;;;;;0.35;0.35;;;;;;;;;;5045841;28;20045;-60
2023/03/29 00:45:45;;;;;;;0.50;0.50;;;;;;;;;;5051330;28;20044;-60
2023/03/29 00:48:16;;;;;;;1.05;0.70;;;;;;;;;;5045532;28;20414;-58
2023/03/29 00:50:47;;;;;;;0.20;0.20;;;;;;;;;;5048867;28;20049;-59
2023/03/29 00:53:18;;;;;;;0.20;0.20;;;;;;;;;;5051017;28;20073;-60
2023/03/29 00:55:51;;;;;;;2.83;0.40;;;;;;;;;;5052896;28;20378;-59
2023/03/29 00:58:23;;;;;;;1.65;0.90;;;;;;;;;;4987291;28;20066;-62
2023/03/29 01:00:54;;;;;;;1.95;1.30;;;;;;;;;;4989124;28;20054;-59
2023/03/29 01:03:26;;;;;;;0.20;0.20;;;;;;;;;;4977766;28;20061;-60
2023/03/29 01:05:58;;;;;;;0.20;0.20;;;;;;;;;;4970932;28;20053;-61
2023/03/29 01:08:29;;;;;;;0.47;0.40;;;;;;;;;;4975387;28;20122;-59
2023/03/29 01:10:59;;;;;;;0.32;0.20;;;;;;;;;;4974422;28;20118;-61
2023/03/29 01:13:29;;;;;;;2.92;0.32;;;;;;;;;;4978250;28;20519;-60
2023/03/29 01:15:59;;;;;;;0.93;0.40;;;;;;;;;;4967878;28;20088;-59
2023/03/29 01:18:30;;;;;;;0.35;0.35;;;;;;;;;;4986251;28;20054;-60
2023/03/29 01:21:05;;;;;;;0.40;0.40;;;;;;;;;;4971186;28;20567;-59
2023/03/29 01:23:52;;;;;;;0.57;0.57;;;;;;;;;;4977589;28;20046;-59
2023/03/29 01:26:23;;;;;;;0.38;0.38;;;;;;;;;;4933392;28;20050;-63
2023/03/29 01:28:56;;;;;;;0.13;0.13;;;;;;;;;;4982462;28;20078;-59
2023/03/29 01:31:26;;;;;;;1.13;0.57;;;;;;;;;;5020787;28;20041;-59
2023/03/29 01:33:58;;;;;;;0.30;0.30;;;;;;;;;;5030744;28;20060;-61
2023/03/29 01:36:28;;;;;;;0.20;0.20;;;;;;;;;;5029512;28;20069;-60
2023/03/29 01:38:57;;;;;;;4.03;0.50;;;;;;;;;;5031431;28;20124;-59
2023/03/29 01:41:29;;;;;;;0.52;0.47;;;;;;;;;;5030878;28;20081;-59
2023/03/29 01:44:02;;;;;;;0.35;0.25;;;;;;;;;;5023958;28;20046;-59
2023/03/29 01:46:32;;;;;;;0.20;0.20;;;;;;;;;;5030722;28;20391;-59
2023/03/29 01:49:04;;;;;;;0.40;0.35;;;;;;;;;;5027396;28;20057;-59
2023/03/29 01:51:36;;;;;;;0.13;0.13;;;;;;;;;;5028523;28;20085;-59
2023/03/29 01:54:06;;;;;;;0.32;0.28;;;;;;;;;;5031332;28;20081;-59
2023/03/29 01:56:37;;;;;;;0.52;0.52;;;;;;;;;;5027628;28;20546;-63
2023/03/29 01:59:10;;;;;;;0.82;0.35;;;;;;;;;;5032105;28;20406;-60
2023/03/29 02:01:41;;;;;;;1.55;0.30;;;;;;;;;;5031158;28;20050;-59
2023/03/29 02:04:11;;;;;;;0.47;0.20;;;;;;;;;;5034919;28;20056;-63
2023/03/29 02:06:41;;;;;;;0.38;0.38;;;;;;;;;;5046690;28;20045;-62
2023/03/29 02:09:09;;;;;;;0.30;0.30;;;;;;;;;;5046501;28;20051;-59
2023/03/29 02:11:38;;;;;;;0.40;0.40;;;;;;;;;;5051908;28;20401;-60
2023/03/29 02:14:08;;;;;;;0.13;0.13;;;;;;;;;;5050185;28;20053;-60
2023/03/29 02:16:37;;;;;;;0.30;0.30;;;;;;;;;;5041449;28;20505;-59
2023/03/29 02:19:06;;;;;;;1.27;0.22;;;;;;;;;;5048713;28;20128;-67
2023/03/29 02:21:38;;;;;;;0.32;0.30;;;;;;;;;;5050904;28;20589;-59
2023/03/29 02:24:08;;;;;;;0.45;0.30;;;;;;;;;;5048781;28;20071;-60
2023/03/29 02:26:36;;;;;;;0.40;0.32;;;;;;;;;;5048630;28;20056;-59
2023/03/29 02:29:05;;;;;;;0.20;0.20;;;;;;;;;;5048703;28;20040;-59
2023/03/29 02:31:37;;;;;;;0.73;0.17;;;;;;;;;;5046549;28;20051;-59
2023/03/29 02:34:08;;;;;;;0.38;0.20;;;;;;;;;;5046716;28;20041;-59
2023/03/29 02:36:40;;;;;;;0.40;0.32;;;;;;;;;;5045940;28;20068;-61
2023/03/29 02:39:12;;;;;;;1.23;0.60;;;;;;;;;;5049898;28;20405;-60
2023/03/29 02:41:42;;;;;;;1.08;0.20;;;;;;;;;;5051240;28;20551;-59
2023/03/29 02:44:12;;;;;;;3.10;0.65;;;;;;;;;;5050270;28;20055;-60
2023/03/29 02:46:42;;;;;;;0.17;0.17;;;;;;;;;;5049387;28;20089;-59
2023/03/29 02:49:11;;;;;;;0.32;0.22;;;;;;;;;;5043351;28;20463;-59
2023/03/29 02:51:40;;;;;;;0.52;0.25;;;;;;;;;;5042120;28;20051;-63
2023/03/29 02:54:10;;;;;;;0.17;0.17;;;;;;;;;;5050317;28;20053;-59
2023/03/29 02:56:43;;;;;;;0.20;0.20;;;;;;;;;;5049903;28;20088;-60
2023/03/29 02:59:12;;;;;;;0.65;0.28;;;;;;;;;;5040375;28;20052;-59
2023/03/29 03:01:43;;;;;;;2.75;0.20;;;;;;;;;;5044420;28;20056;-59
2023/03/29 03:04:12;;;;;;;0.20;0.20;;;;;;;;;;5040498;28;20482;-59
2023/03/29 03:06:41;;;;;;;0.17;0.17;;;;;;;;;;5045084;28;20073;-59
2023/03/29 03:09:09;;;;;;;0.95;0.63;;;;;;;;;;5043231;28;20052;-59
2023/03/29 03:11:38;;;;;;;0.10;0.10;;;;;;;;;;5045632;28;20044;-59
2023/03/29 03:14:06;;;;;;;0.25;0.25;;;;;;;;;;5048169;28;20076;-61
2023/03/29 03:16:35;;;;;;;0.28;0.28;;;;;;;;;;5049465;28;20616;-59
2023/03/29 03:19:05;;;;;;;0.10;0.10;;;;;;;;;;5045509;28;20501;-62
2023/03/29 03:21:34;;;;;;;0.10;0.10;;;;;;;;;;5048022;28;20056;-60
2023/03/29 03:24:02;;;;;;;0.38;0.38;;;;;;;;;;5046185;28;20067;-60
2023/03/29 03:26:30;;;;;;;0.25;0.25;;;;;;;;;;5044819;28;20099;-61
2023/03/29 03:28:59;;;;;;;0.40;0.40;;;;;;;;;;5047704;28;20041;-59
2023/03/29 03:31:28;;;;;;;0.28;0.28;;;;;;;;;;5050398;28;20132;-59
2023/03/29 03:33:56;;;;;;;1.40;0.80;;;;;;;;;;5043939;28;20071;-61
2023/03/29 03:36:30;;;;;;;0.10;0.10;;;;;;;;;;5043986;28;20041;-59
2023/03/29 03:38:58;;;;;;;0.15;0.15;;;;;;;;;;5042011;28;20140;-61
2023/03/29 03:41:27;;;;;;;0.10;0.10;;;;;;;;;;5045685;28;20049;-61
2023/03/29 03:43:55;;;;;;;3.03;0.93;;;;;;;;;;5049732;28;20203;-59
2023/03/29 03:46:23;;;;;;;0.15;0.15;;;;;;;;;;5050284;28;20501;-59
2023/03/29 03:48:53;;;;;;;0.50;0.50;;;;;;;;;;5043759;28;20421;-59
2023/03/29 03:51:21;;;;;;;0.10;0.10;;;;;;;;;;5048111;28;20128;-59
2023/03/29 03:53:51;;;;;;;0.22;0.22;;;;;;;;;;5048410;28;20091;-59
2023/03/29 03:56:19;;;;;;;0.10;0.10;;;;;;;;;;5041533;28;20049;-60
2023/03/29 03:58:48;;;;;;;0.55;0.17;;;;;;;;;;5048536;28;20048;-60
2023/03/29 04:01:16;;;;;;;0.70;0.30;;;;;;;;;;5046962;28;20584;-65
2023/03/29 04:03:45;;;;;;;0.30;0.30;;;;;;;;;;5047648;28;20081;-59
2023/03/29 04:06:13;;;;;;;7.03;0.60;;;;;;;;;;5041651;28;20049;-61
2023/03/29 04:08:42;;;;;;;0.10;0.10;;;;;;;;;;5043319;28;20405;-60
2023/03/29 04:11:11;;;;;;;0.20;0.20;;;;;;;;;;5045145;28;20053;-60
2023/03/29 04:13:40;;;;;;;0.10;0.10;;;;;;;;;;5046941;28;20055;-59
2023/03/29 04:16:08;;;;;;;0.20;0.20;;;;;;;;;;5043786;28;20436;-59
2023/03/29 04:18:37;;;;;;;1.13;0.20;;;;;;;;;;5045692;28;20394;-59
2023/03/29 04:21:06;;;;;;;0.28;0.28;;;;;;;;;;5043180;28;20045;-59
2023/03/29 04:23:34;;;;;;;0.25;0.20;;;;;;;;;;5046285;28;20080;-59
2023/03/29 04:26:02;;;;;;;0.40;0.15;;;;;;;;;;5047935;28;20053;-59
2023/03/29 04:28:32;;;;;;;0.20;0.10;;;;;;;;;;5039689;28;20045;-62
2023/03/29 04:31:00;;;;;;;0.20;0.20;;;;;;;;;;5040652;28;20434;-60
2023/03/29 04:33:29;;;;;;;0.60;0.60;;;;;;;;;;5040067;28;20056;-59
2023/03/29 04:35:58;;;;;;;0.10;0.10;;;;;;;;;;5046186;28;20049;-60
2023/03/29 04:38:26;;;;;;;0.13;0.13;;;;;;;;;;5045351;28;20053;-60
2023/03/29 04:40:55;;;;;;;0.35;0.35;;;;;;;;;;5044665;28;20068;-59
2023/03/29 04:43:23;;;;;;;0.40;0.22;;;;;;;;;;5045911;28;20139;-59
2023/03/29 04:45:54;;;;;;;0.10;0.10;;;;;;;;;;5046178;28;20041;-62
2023/03/29 04:48:22;;;;;;;0.32;0.32;;;;;;;;;;5045961;28;20478;-59
2023/03/29 04:50:51;;;;;;;0.10;0.10;;;;;;;;;;5047231;28;20557;-59
2023/03/29 04:53:19;;;;;;;0.20;0.20;;;;;;;;;;5039993;28;20125;-59
2023/03/29 04:55:48;;;;;;;0.20;0.20;;;;;;;;;;5040530;28;20358;-60
2023/03/29 04:58:16;;;;;;;0.20;0.20;;;;;;;;;;5037129;28;20045;-61
2023/03/29 05:00:48;;;;;;;0.10;0.10;;;;;;;;;;5035372;28;20041;-60
2023/03/29 05:03:17;;;;;;;0.10;0.10;;;;;;;;;;5036518;28;20087;-64
2023/03/29 05:05:46;;;;;;;0.63;0.30;;;;;;;;;;5039260;28;20052;-60
2023/03/29 05:08:14;;;;;;;0.40;0.25;;;;;;;;;;5038912;28;20057;-61
2023/03/29 05:10:43;;;;;;;0.10;0.10;;;;;;;;;;5037374;28;20053;-60
2023/03/29 05:13:12;;;;;;;1.00;0.47;;;;;;;;;;5040110;28;20405;-60
2023/03/29 05:15:40;;;;;;;0.10;0.10;;;;;;;;;;5036058;28;20041;-60
2023/03/29 05:18:09;;;;;;;0.40;0.40;;;;;;;;;;5036487;28;20071;-59
2023/03/29 05:20:39;;;;;;;0.25;0.25;;;;;;;;;;5038786;28;20050;-61
2023/03/29 05:23:07;;;;;;;0.25;0.25;;;;;;;;;;5040693;28;20053;-60
2023/03/29 05:25:35;;;;;;;0.20;0.20;;;;;;;;;;5035358;28;20053;-60
2023/03/29 05:28:04;;;;;;;0.25;0.25;;;;;;;;;;5037737;28;20144;-59
2023/03/29 05:30:32;;;;;;;0.30;0.30;;;;;;;;;;5032569;28;20513;-59
2023/03/29 05:33:04;;;;;;;2.83;0.75;;;;;;;;;;5035952;28;20060;-59
2023/03/29 05:35:32;;;;;;;0.20;0.20;;;;;;;;;;5036397;28;20045;-61
2023/03/29 05:38:03;;;;;;;0.13;0.13;;;;;;;;;;5034111;28;20343;-59
2023/03/29 05:40:32;;;;;;;0.25;0.20;;;;;;;;;;5036954;28;20164;-59
2023/03/29 05:43:01;;;;;;;0.10;0.10;;;;;;;;;;5034900;28;20076;-59
2023/03/29 05:45:31;;;;;;;0.20;0.20;;;;;;;;;;5033594;28;20045;-63
2023/03/29 05:47:59;;;;;;;4.28;0.55;;;;;;;;;;5035814;28;20052;-61
2023/03/29 05:50:29;;;;;;;1.13;0.40;;;;;;;;;;5037338;28;20111;-59
2023/03/29 05:52:57;;;;;;;0.30;0.30;;;;;;;;;;5040102;28;20091;-67
2023/03/29 05:55:27;;;;;;;0.55;0.20;;;;;;;;;;5038430;28;20041;-66
2023/03/29 05:57:56;;;;;;;0.63;0.63;;;;;;;;;;5035614;28;20045;-61
2023/03/29 06:00:24;;;;;;;5.43;0.40;;;;;;;;;;5033961;28;20045;-61
2023/03/29 06:02:54;;;;;;;0.20;0.20;;;;;;;;;;5034149;28;20045;-60
2023/03/29 06:05:33;;;;;;;0.28;0.28;;;;;;;;;;5033286;28;20045;-62
2023/03/29 06:08:02;;;;;;;0.20;0.20;;;;;;;;;;5034229;28;20058;-60
2023/03/29 06:10:32;;;;;;;0.20;0.20;;;;;;;;;;5036805;28;20057;-59
2023/03/29 06:13:00;;;;;;;0.43;0.43;;;;;;;;;;5033188;28;20493;-59
2023/03/29 06:15:28;;;;;;;0.17;0.17;;;;;;;;;;5034467;28;20550;-60
2023/03/29 06:17:57;;;;;;;0.30;0.30;;;;;;;;;;5035950;28;20049;-63
2023/03/29 06:20:25;;;;;;;0.20;0.20;;;;;;;;;;5035707;28;20123;-66
2023/03/29 06:22:54;;;;;;;0.70;0.45;;;;;;;;;;5036201;28;20514;-67
2023/03/29 06:25:22;;;;;;;0.10;0.10;;;;;;;;;;5035602;28;20067;-61
2023/03/29 06:27:53;;;;;;;0.35;0.30;;;;;;;;;;5037444;28;20047;-59
2023/03/29 06:30:21;;;;;;;0.10;0.10;;;;;;;;;;5037012;28;20089;-65
2023/03/29 06:32:49;;;;;;;1.55;0.25;;;;;;;;;;5038666;28;20156;-63
2023/03/29 06:35:18;;;;;;;0.30;0.30;;;;;;;;;;5036404;28;20045;-60
2023/03/29 06:37:49;;;;;;;0.15;0.15;;;;;;;;;;5031867;28;20155;-59
2023/03/29 06:40:18;;;;;;;0.20;0.20;;;;;;;;;;5037335;28;20060;-59
2023/03/29 06:42:46;;;;;;;0.90;0.20;;;;;;;;;;5034946;28;20046;-59
2023/03/29 06:45:16;;;;;;;0.10;0.10;;;;;;;;;;5037878;28;20072;-60
2023/03/29 06:47:45;;;;;;;0.10;0.10;;;;;;;;;;5035811;28;20129;-59
2023/03/29 06:50:13;;;;;;;0.32;0.32;;;;;;;;;;5035639;28;20061;-61
2023/03/29 06:52:41;;;;;;;0.20;0.20;;;;;;;;;;5035087;28;20056;-60
2023/03/29 06:55:10;;;;;;;0.10;0.10;;;;;;;;;;5037355;28;20046;-60
2023/03/29 06:57:39;;;;;;;0.10;0.10;;;;;;;;;;5035674;28;20160;-67
2023/03/29 07:00:14;;;;;;;1.52;0.32;;;;;;;;;;5035177;28;20052;-64
2023/03/29 07:02:44;;;;;;;5.53;1.05;;;;;;;;;;5036837;28;20041;-67
2023/03/29 07:05:13;;;;;;;0.45;0.30;;;;;;;;;;5041786;28;20132;-60
2023/03/29 07:07:55;;;;;;;0.20;0.20;;;;;;;;;;5043523;28;20053;-59
2023/03/29 07:10:26;;;;;;;0.55;0.30;;;;;;;;;;5045287;28;21221;-60
2023/03/29 07:12:56;;;;;;;0.10;0.10;;;;;;;;;;5044802;28;20069;-59
2023/03/29 07:15:25;;;;;;;0.10;0.10;;;;;;;;;;5042379;28;20051;-64
2023/03/29 07:17:56;;;;;;;0.15;0.15;;;;;;;;;;5044113;28;20077;-59
2023/03/29 07:20:25;;;;;;;2.70;0.38;;;;;;;;;;5043572;28;20041;-60
2023/03/29 07:22:54;;;;;;;0.20;0.20;;;;;;;;;;5044171;28;20048;-66
2023/03/29 07:25:24;;;;;;;0.28;0.28;;;;;;;;;;5044570;28;20099;-64
2023/03/29 07:27:52;;;;;;;0.38;0.30;;;;;;;;;;5043698;28;20045;-62
2023/03/29 07:30:21;;;;;;;1.13;0.40;;;;;;;;;;5044354;28;20080;-60
2023/03/29 07:32:52;;;;;;;0.85;0.85;;;;;;;;;;5044245;28;20044;-64
2023/03/29 07:35:23;;;;;;;6.55;0.60;;;;;;;;;;5042493;28;20045;-61
2023/03/29 07:37:53;;;;;;;0.25;0.25;;;;;;;;;;5043520;28;20771;-59
2023/03/29 07:40:23;;;;;;;1.25;0.35;;;;;;;;;;5043022;28;20494;-61
2023/03/29 07:42:52;;;;;;;0.17;0.17;;;;;;;;;;5043374;28;20444;-59
2023/03/29 07:45:22;;;;;;;1.08;0.45;;;;;;;;;;5043384;28;20111;-59
2023/03/29 07:47:56;;;;;;;0.70;0.55;;;;;;;;;;5041616;28;20472;-61
2023/03/29 07:50:26;;;;;;;1.75;0.43;;;;;;;;;;5041859;28;20060;-61
2023/03/29 07:52:55;;;;;;;1.58;0.60;;;;;;;;;;5042642;28;20585;-60
2023/03/29 07:55:24;;;;;;;1.73;0.10;;;;;;;;;;5043677;28;20059;-60
2023/03/29 07:57:52;;;;;;;0.28;0.20;;;;;;;;;;5042300;28;20051;-61
2023/03/29 08:00:23;;;;;;;0.82;0.32;;;;;;;;;;5041179;28;20044;-62
2023/03/29 08:02:52;;;;;;;0.47;0.40;;;;;;;;;;5044906;28;20128;-62
2023/03/29 08:05:22;;;;;;;0.10;0.10;;;;;;;;;;5034842;28;20056;-65
2023/03/29 08:08:09;;;;;;;0.47;0.40;;;;;;;;;;5032287;28;20132;-59
2023/03/29 08:10:39;;;;;;;0.40;0.40;;;;;;;;;;5037445;28;20045;-60
2023/03/29 08:13:08;;;;;;;0.10;0.10;;;;;;;;;;5036863;28;20128;-61
2023/03/29 08:15:38;;;;;;;0.40;0.40;;;;;;;;;;5035970;28;20049;-60
2023/03/29 08:18:06;;;;;;;0.22;0.22;;;;;;;;;;5032743;28;20045;-59
2023/03/29 08:20:35;;;;;;;2.33;0.63;;;;;;;;;;5036880;28;20051;-65
2023/03/29 08:23:03;;;;;;;0.20;0.20;;;;;;;;;;5035518;28;20103;-60
2023/03/29 08:25:34;;;;;;;0.43;0.43;;;;;;;;;;5036227;28;20502;-60
2023/03/29 08:28:02;;;;;;;5.18;0.30;;;;;;;;;;5036033;28;20077;-60
2023/03/29 08:30:30;;;;;;;0.10;0.10;;;;;;;;;;5036894;28;20231;-60
2023/03/29 08:32:59;;;;;;;0.85;0.60;;;;;;;;;;5037326;28;20561;-61
2023/03/29 08:35:27;;;;;;;0.77;0.30;;;;;;;;;;5037067;28;20064;-61
2023/03/29 08:37:56;;;;;;;0.10;0.10;;;;;;;;;;5039465;28;20383;-60
2023/03/29 08:40:25;;;;;;;0.93;0.30;;;;;;;;;;5039404;28;20083;-60
2023/03/29 08:43:00;;;;;;;0.63;0.20;;;;;;;;;;5035391;28;20131;-62
2023/03/29 08:45:32;;;;;;;0.17;0.17;;;;;;;;;;5039670;28;20068;-61
2023/03/29 08:48:04;;;;;;;1.65;0.43;;;;;;;;;;5038650;28;20045;-59
2023/03/29 08:50:34;;;;;;;0.20;0.20;;;;;;;;;;5039221;28;20110;-60
2023/03/29 08:53:04;;;;;;;0.10;0.10;;;;;;;;;;5036045;28;20558;-60
2023/03/29 08:55:34;;;;;;;0.22;0.22;;;;;;;;;;5041029;28;20049;-60
2023/03/29 08:58:07;;;;;;;1.02;0.20;;;;;;;;;;5035879;28;20468;-59
2023/03/29 09:00:38;;;;;;;0.35;0.25;;;;;;;;;;5037589;28;20406;-60
2023/03/29 09:03:10;;;;;;;0.20;0.20;;;;;;;;;;5038479;28;20049;-62
2023/03/29 09:05:40;;;;;;;0.20;0.20;;;;;;;;;;5037702;28;20049;-67
2023/03/29 09:08:12;;;;;;;0.13;0.13;;;;;;;;;;5037812;28;20139;-66
2023/03/29 09:10:43;;;;;;;0.10;0.10;;;;;;;;;;5038947;28;20127;-61
2023/03/29 09:13:21;;;;;;;1.50;0.10;;;;;;;;;;5035533;28;20051;-60
2023/03/29 09:15:51;;;;;;;0.10;0.10;;;;;;;;;;5037749;28;20441;-61
2023/03/29 09:18:25;;;;;;;0.20;0.20;;;;;;;;;;5039036;28;20053;-70
2023/03/29 09:20:56;;;;;;;0.22;0.22;;;;;;;;;;5039446;28;20077;-60
2023/03/29 09:23:33;;;;;;;0.10;0.10;;;;;;;;;;5038468;28;20038;-60
2023/03/29 09:26:05;;;;;;;0.17;0.17;;;;;;;;;;5037545;28;20135;-63
2023/03/29 09:28:37;;;;;;;0.20;0.20;;;;;;;;;;5036443;28;20073;-61
2023/03/29 09:31:07;;;;;;;0.22;0.17;;;;;;;;;;5035641;28;20136;-60
2023/03/29 09:33:41;;;;;;;0.30;0.30;;;;;;;;;;5035205;28;20053;-60
2023/03/29 09:36:11;;;;;;;0.15;0.15;;;;;;;;;;5036303;28;20447;-60
2023/03/29 09:38:42;;;;;;;0.30;0.30;;;;;;;;;;5039098;28;20060;-61
2023/03/29 09:41:15;;;;;;;0.20;0.20;;;;;;;;;;5039579;28;20421;-64
2023/03/29 09:43:45;;;;;;;0.90;0.52;;;;;;;;;;5036620;28;20132;-60
2023/03/29 09:46:17;;;;;;;0.70;0.30;;;;;;;;;;5035927;28;20065;-60
2023/03/29 09:48:45;;;;;;;0.30;0.20;;;;;;;;;;5035660;28;20399;-59
2023/03/29 09:51:15;;;;;;;1.20;0.35;;;;;;;;;;5038387;28;20041;-59
2023/03/29 09:53:43;;;;;;;0.68;0.60;;;;;;;;;;5035996;28;20127;-59
2023/03/29 09:56:14;;;;;;;0.00;0.00;;;;;;;;;;5036140;28;20048;-63
2023/03/29 09:58:45;;;;;;;0.30;0.22;;;;;;;;;;5034988;28;20045;-67
2023/03/29 10:01:16;;;;;;;0.10;0.10;;;;;;;;;;5034819;28;20516;-59
2023/03/29 10:03:48;;;;;;;0.80;0.30;;;;;;;;;;5035814;28;20056;-59
2023/03/29 10:06:17;;;;;;;0.55;0.43;;;;;;;;;;5032051;28;20045;-60
2023/03/29 10:08:47;;;;;;;0.30;0.20;;;;;;;;;;5034697;28;20498;-60
2023/03/29 10:11:22;;;;;;;1.08;0.65;;;;;;;;;;5037864;28;20075;-61
2023/03/29 10:13:56;;;;;;;1.27;0.30;;;;;;;;;;5033628;28;20063;-59
2023/03/29 10:16:25;;;;;;;4.40;0.40;;;;;;;;;;5035729;28;20080;-60
2023/03/29 10:18:54;;;;;;;0.20;0.20;;;;;;;;;;5036824;28;20057;-60
2023/03/29 10:21:23;;;;;;;0.43;0.25;;;;;;;;;;5038760;28;20149;-59
2023/03/29 10:23:58;;;;;;;0.22;0.22;;;;;;;;;;5033611;28;20525;-63
2023/03/29 10:26:26;;;;;;;;;;;;;;;;;;5035144;28;20474;-60
2023/03/29 10:28:59;;;;;;;0.30;0.30;;;;;;;;;;5039251;28;20019;-60
2023/03/29 10:31:30;;;;;;;0.20;0.20;;;;;;;;;;5037300;28;20139;-61
2023/03/29 10:33:58;;;;;;;4.68;0.30;;;;;;;;;;5034422;28;20045;-68
2023/03/29 10:36:27;;;;;;;0.20;0.20;;;;;;;;;;5036498;28;20135;-62
2023/03/29 10:38:57;;;;;;;4.85;0.30;;;;;;;;;;5034379;28;20140;-62
2023/03/29 10:41:27;;;;;;;0.30;0.30;;;;;;;;;;5033450;28;20129;-67
2023/03/29 10:43:56;;;;;;;0.70;0.60;;;;;;;;;;5039197;28;20083;-60
2023/03/29 10:46:28;;;;;;;2.60;0.30;;;;;;;;;;5034371;28;20114;-62
2023/03/29 10:48:58;;;;;;;0.25;0.25;;;;;;;;;;5032104;28;20095;-61
2023/03/29 10:51:30;;;;;;;0.13;0.13;;;;;;;;;;5036493;28;20577;-63
2023/03/29 10:53:58;;;;;;;3.03;0.47;;;;;;;;;;5033594;28;20391;-60
2023/03/29 10:56:33;;;;;;;0.45;0.22;;;;;;;;;;5033466;28;20039;-67
2023/03/29 10:59:10;;;;;;;0.60;0.60;;;;;;;;;;5036432;28;20167;-62
2023/03/29 11:01:42;;;;;;;0.98;0.20;;;;;;;;;;5034947;28;20480;-60
2023/03/29 11:04:21;;;;;;;0.65;0.43;;;;;;;;;;5034477;28;20088;-62
2023/03/29 11:06:55;;;;;;;1.60;0.50;;;;;;;;;;5036219;28;20052;-64
2023/03/29 11:09:27;;;;;;;0.10;0.10;;;;;;;;;;5036635;28;20331;-65
2023/03/29 11:12:04;;;;;;;0.10;0.10;;;;;;;;;;5034797;28;20087;-60
2023/03/29 11:14:52;;;;;;;0.20;0.20;;;;;;;;;;5035646;28;20045;-60
2023/03/29 11:17:26;;;;;;;0.28;0.28;;;;;;;;;;5035919;28;20055;-61
2023/03/29 11:19:57;;;;;;;0.30;0.30;;;;;;;;;;5033628;28;20409;-59
2023/03/29 11:22:31;;;;;;;0.50;0.30;;;;;;;;;;5036200;28;20140;-60
2023/03/29 11:25:10;;;;;;;0.25;0.17;;;;;;;;;;5031164;28;20115;-64
2023/03/29 11:27:42;;;;;;;0.43;0.30;;;;;;;;;;5034525;28;20587;-60
2023/03/29 11:30:14;;;;;;;0.52;0.52;;;;;;;;;;5032767;28;20049;-63
2023/03/29 11:32:48;;;;;;;0.30;0.25;;;;;;;;;;5032632;28;20534;-60
2023/03/29 11:35:23;;;;;;;0.60;0.20;;;;;;;;;;5035250;28;20045;-61
2023/03/29 11:37:52;;;;;;;;;;;;;;;;;;5031834;28;20076;-62
2023/03/29 11:40:34;;;;;;;0.43;0.13;;;;;;;;;;5034380;28;19925;-62
2023/03/29 11:43:05;;;;;;;0.30;0.30;;;;;;;;;;5035998;28;20053;-59
2023/03/29 11:45:38;;;;;;;1.48;0.63;;;;;;;;;;5036491;28;20044;-60
2023/03/29 11:48:11;;;;;;;1.38;0.73;;;;;;;;;;5034199;28;20073;-68
2023/03/29 11:50:42;;;;;;;0.98;0.22;;;;;;;;;;5034272;28;20053;-64
2023/03/29 11:53:13;;;;;;;0.30;0.30;;;;;;;;;;5036045;28;20047;-66
2023/03/29 11:55:43;;;;;;;3.33;0.20;;;;;;;;;;5038813;28;20064;-60
2023/03/29 11:58:13;;;;;;;0.32;0.32;;;;;;;;;;5037988;28;20571;-60
2023/03/29 12:00:46;;;;;;;0.55;0.43;;;;;;;;;;5035777;28;20063;-60
2023/03/29 12:03:20;;;;;;;0.20;0.20;;;;;;;;;;5037823;28;20079;-61
2023/03/29 12:05:51;;;;;;;0.80;0.25;;;;;;;;;;5046176;28;20639;-63
2023/03/29 12:08:21;;;;;;;1.85;0.30;;;;;;;;;;5047449;28;20045;-60
2023/03/29 12:10:52;;;;;;;0.52;0.52;;;;;;;;;;5045458;28;20049;-60
2023/03/29 12:13:23;;;;;;;4.00;0.40;;;;;;;;;;5046783;28;20127;-61
2023/03/29 12:15:54;;;;;;;2.47;0.32;;;;;;;;;;5046311;28;20076;-60
2023/03/29 12:18:25;;;;;;;2.92;0.30;;;;;;;;;;5046910;28;20136;-62
2023/03/29 12:20:56;;;;;;;1.73;0.30;;;;;;;;;;5046019;28;20491;-62
2023/03/29 12:23:24;;;;;;;2.25;1.08;;;;;;;;;;5045189;28;20045;-61
2023/03/29 12:25:56;;;;;;;0.30;0.30;;;;;;;;;;5047481;28;20056;-62
2023/03/29 12:28:33;;;;;;;2.22;0.40;;;;;;;;;;5046089;28;20049;-59
2023/03/29 12:31:07;;;;;;;0.20;0.20;;;;;;;;;;5046411;28;20102;-66
2023/03/29 12:33:41;;;;;;;0.25;0.25;;;;;;;;;;5045570;28;20061;-60
2023/03/29 12:36:15;;;;;;;1.20;0.47;;;;;;;;;;5043797;28;20067;-61
2023/03/29 12:38:44;;;;;;;1.95;0.20;;;;;;;;;;5047532;28;20045;-59
2023/03/29 12:41:17;;;;;;;1.23;0.47;;;;;;;;;;5047096;28;20597;-62
2023/03/29 12:43:46;;;;;;;0.20;0.20;;;;;;;;;;5047565;28;20043;-60
2023/03/29 12:46:18;;;;;;;0.55;0.20;;;;;;;;;;5044355;28;20111;-61
2023/03/29 12:48:48;;;;;;;0.20;0.20;;;;;;;;;;5045997;28;20095;-64
2023/03/29 12:51:17;;;;;;;0.40;0.30;;;;;;;;;;5046082;28;20136;-64
2023/03/29 12:53:48;;;;;;;0.65;0.50;;;;;;;;;;5044164;28;20483;-67
2023/03/29 12:56:17;;;;;;;1.23;0.30;;;;;;;;;;5046460;28;20136;-59
2023/03/29 12:59:07;;;;;;;0.55;0.20;;;;;;;;;;5045200;28;20096;-62
2023/03/29 13:01:39;;;;;;;0.77;0.25;;;;;;;;;;5044886;28;20048;-61
2023/03/29 13:04:17;;;;;;;0.98;0.43;;;;;;;;;;5043011;28;20061;-60
2023/03/29 13:06:55;;;;;;;1.85;0.30;;;;;;;;;;5034140;28;20052;-63
2023/03/29 13:09:28;;;;;;;1.38;0.30;;;;;;;;;;5036752;28;20069;-63
2023/03/29 13:11:57;;;;;;;1.08;0.35;;;;;;;;;;5039160;28;20061;-62
2023/03/29 13:14:29;;;;;;;0.32;0.28;;;;;;;;;;5039622;28;20497;-60
2023/03/29 13:17:03;;;;;;;1.08;0.50;;;;;;;;;;5037073;28;20132;-60
2023/03/29 13:19:48;;;;;;;0.55;0.28;;;;;;;;;;5039529;28;20170;-60
2023/03/29 13:22:23;;;;;;;2.13;0.75;;;;;;;;;;5035906;28;20053;-60
2023/03/29 13:24:51;;;;;;;;;;;;;;;;;;5036249;28;20128;-60
2023/03/29 13:27:25;;;;;;;0.30;0.30;;;;;;;;;;5036205;28;19929;-60
2023/03/29 13:29:58;;;;;;;0.68;0.50;;;;;;;;;;5039234;28;20045;-63
2023/03/29 13:32:34;;;;;;;5.60;0.40;;;;;;;;;;5036601;28;20056;-60
2023/03/29 13:35:06;;;;;;;0.32;0.22;;;;;;;;;;5038391;28;20045;-60
2023/03/29 13:37:39;;;;;;;1.20;0.40;;;;;;;;;;5037148;28;20802;-60
2023/03/29 13:40:22;;;;;;;0.10;0.10;;;;;;;;;;5035891;28;20140;-59
2023/03/29 13:42:56;;;;;;;1.52;0.65;;;;;;;;;;5037267;28;20055;-65
2023/03/29 13:45:26;;;;;;;0.70;0.50;;;;;;;;;;5036725;28;20080;-61
2023/03/29 13:48:03;;;;;;;1.17;0.70;;;;;;;;;;5037719;28;20144;-60
2023/03/29 13:50:35;;;;;;;3.15;0.68;;;;;;;;;;5036885;28;20132;-59
2023/03/29 13:53:06;;;;;;;0.20;0.20;;;;;;;;;;5036934;28;20060;-59
2023/03/29 13:55:38;;;;;;;0.40;0.40;;;;;;;;;;5034234;28;20049;-60
2023/03/29 13:58:08;;;;;;;6.40;1.58;;;;;;;;;;5035951;28;20052;-63
2023/03/29 14:00:40;;;;;;;6.80;0.60;;;;;;;;;;5036167;28;20052;-61
2023/03/29 14:03:13;;;;;;;2.42;0.40;;;;;;;;;;5035980;28;20490;-61
2023/03/29 14:05:42;;;;;;;0.10;0.10;;;;;;;;;;5041849;28;20053;-61
2023/03/29 14:08:15;;;;;;;0.20;0.20;;;;;;;;;;5043827;28;20045;-69
2023/03/29 14:10:45;;;;;;;2.33;0.50;;;;;;;;;;5044010;28;20453;-64
2023/03/29 14:13:13;;;;;;;0.52;0.30;;;;;;;;;;5041110;28;20735;-65
2023/03/29 14:15:44;;;;;;;1.15;0.40;;;;;;;;;;5039359;28;20179;-60
2023/03/29 14:18:15;;;;;;;0.30;0.30;;;;;;;;;;5044121;28;20594;-60
2023/03/29 14:20:44;;;;;;;0.75;0.65;;;;;;;;;;5045382;28;20136;-64
2023/03/29 14:23:16;;;;;;;0.82;0.35;;;;;;;;;;5045682;28;20139;-64
2023/03/29 14:25:45;;;;;;;0.52;0.52;;;;;;;;;;5043723;28;20517;-60
2023/03/29 14:28:19;;;;;;;0.25;0.25;;;;;;;;;;5042884;28;20132;-60
2023/03/29 14:30:51;;;;;;;0.30;0.30;;;;;;;;;;5042141;28;20076;-63
2023/03/29 14:33:28;;;;;;;0.17;0.17;;;;;;;;;;5042946;28;20114;-60
2023/03/29 14:35:57;;;;;;;0.38;0.28;;;;;;;;;;5041514;28;20136;-61
2023/03/29 14:38:27;;;;;;;3.22;0.38;;;;;;;;;;5040583;28;20037;-60
2023/03/29 14:40:59;;;;;;;8.02;0.20;;;;;;;;;;5043674;28;20141;-63
2023/03/29 14:43:30;;;;;;;0.50;0.30;;;;;;;;;;5042871;28;20057;-65
2023/03/29 14:45:59;;;;;;;0.20;0.20;;;;;;;;;;5043386;28;20057;-61
2023/03/29 14:48:31;;;;;;;1.02;0.63;;;;;;;;;;5041137;28;20041;-64
2023/03/29 14:51:00;;;;;;;2.22;0.50;;;;;;;;;;5042291;28;20072;-60
2023/03/29 14:53:31;;;;;;;1.95;0.40;;;;;;;;;;5044011;28;20133;-64
2023/03/29 14:56:00;;;;;;;0.30;0.30;;;;;;;;;;5043207;28;20075;-60
2023/03/29 14:58:32;;;;;;;2.40;0.38;;;;;;;;;;5042829;28;20060;-60
2023/03/29 15:01:04;;;;;;;0.45;0.38;;;;;;;;;;5043618;28;20047;-67
2023/03/29 15:03:43;;;;;;;0.25;0.22;;;;;;;;;;5041443;28;20053;-61